sensor_id;sensor_type;location;lat;lon;timestamp;P1;durP1;ratioP1;P2;durP2;ratioP2
19569;SDS011;9931;51.458;7.256;2023-07-13T00:01:36;29.92;;;2.40;;
19569;SDS011;9931;51.458;7.256;2023-07-13T00:04:03;26.33;;;2.17;;
19569;SDS011;9931;51.458;7.256;2023-07-13T00:06:28;19.42;;;1.73;;
19569;SDS011;9931;51.458;7.256;2023-07-13T00:08:57;28.60;;;2.30;;
19569;SDS011;9931;51.458;7.256;2023-07-13T00:11:22;23.98;;;2.05;;
19569;SDS011;9931;51.458;7.256;2023-07-13T00:13:48;20.15;;;1.73;;
19569;SDS011;9931;51.458;7.256;2023-07-13T00:16:13;45.73;;;3.40;;
19569;SDS011;9931;51.458;7.256;2023-07-13T00:18:39;71.25;;;5.22;;
19569;SDS011;9931;51.458;7.256;2023-07-13T00:21:04;25.52;;;2.03;;
19569;SDS011;9931;51.458;7.256;2023-07-13T00:23:33;32.05;;;2.47;;
19569;SDS011;9931;51.458;7.256;2023-07-13T00:25:59;41.40;;;3.13;;
19569;SDS011;9931;51.458;7.256;2023-07-13T00:28:24;38.42;;;2.97;;
19569;SDS011;9931;51.458;7.256;2023-07-13T00:30:49;11.43;;;1.10;;
19569;SDS011;9931;51.458;7.256;2023-07-13T00:33:14;19.83;;;1.73;;
19569;SDS011;9931;51.458;7.256;2023-07-13T00:35:40;17.73;;;1.53;;
19569;SDS011;9931;51.458;7.256;2023-07-13T00:38:08;27.73;;;2.28;;
19569;SDS011;9931;51.458;7.256;2023-07-13T00:40:33;23.92;;;2.00;;
19569;SDS011;9931;51.458;7.256;2023-07-13T00:42:59;28.30;;;2.23;;
19569;SDS011;9931;51.458;7.256;2023-07-13T00:47:50;21.52;;;1.80;;
19569;SDS011;9931;51.458;7.256;2023-07-13T00:50:15;22.00;;;1.85;;
19569;SDS011;9931;51.458;7.256;2023-07-13T00:52:41;32.50;;;2.50;;
19569;SDS011;9931;51.458;7.256;2023-07-13T00:55:07;36.25;;;2.78;;
19569;SDS011;9931;51.458;7.256;2023-07-13T00:57:34;15.75;;;1.42;;
19569;SDS011;9931;51.458;7.256;2023-07-13T01:00:00;37.80;;;2.88;;
19569;SDS011;9931;51.458;7.256;2023-07-13T01:02:31;17.17;;;1.48;;
19569;SDS011;9931;51.458;7.256;2023-07-13T01:04:57;22.30;;;1.88;;
19569;SDS011;9931;51.458;7.256;2023-07-13T01:07:22;17.02;;;1.52;;
19569;SDS011;9931;51.458;7.256;2023-07-13T01:09:47;70.97;;;4.95;;
19569;SDS011;9931;51.458;7.256;2023-07-13T01:12:12;50.10;;;3.70;;
19569;SDS011;9931;51.458;7.256;2023-07-13T01:14:38;15.57;;;1.45;;
19569;SDS011;9931;51.458;7.256;2023-07-13T01:17:04;21.17;;;1.80;;
19569;SDS011;9931;51.458;7.256;2023-07-13T01:19:40;34.00;;;2.60;;
19569;SDS011;9931;51.458;7.256;2023-07-13T01:22:07;20.70;;;1.80;;
19569;SDS011;9931;51.458;7.256;2023-07-13T01:24:34;15.73;;;1.42;;
19569;SDS011;9931;51.458;7.256;2023-07-13T01:26:59;21.38;;;1.85;;
19569;SDS011;9931;51.458;7.256;2023-07-13T01:29:24;18.13;;;1.50;;
19569;SDS011;9931;51.458;7.256;2023-07-13T01:31:49;16.50;;;1.40;;
19569;SDS011;9931;51.458;7.256;2023-07-13T01:34:15;30.63;;;2.47;;
19569;SDS011;9931;51.458;7.256;2023-07-13T01:36:40;31.30;;;2.47;;
19569;SDS011;9931;51.458;7.256;2023-07-13T01:39:05;43.53;;;3.17;;
19569;SDS011;9931;51.458;7.256;2023-07-13T01:41:30;14.35;;;1.33;;
19569;SDS011;9931;51.458;7.256;2023-07-13T01:43:55;33.73;;;2.57;;
19569;SDS011;9931;51.458;7.256;2023-07-13T01:46:21;14.52;;;1.30;;
19569;SDS011;9931;51.458;7.256;2023-07-13T01:48:46;17.48;;;1.48;;
19569;SDS011;9931;51.458;7.256;2023-07-13T01:51:11;25.17;;;2.10;;
19569;SDS011;9931;51.458;7.256;2023-07-13T01:53:37;27.27;;;2.20;;
19569;SDS011;9931;51.458;7.256;2023-07-13T01:56:02;24.17;;;2.07;;
19569;SDS011;9931;51.458;7.256;2023-07-13T01:58:27;56.47;;;4.22;;
19569;SDS011;9931;51.458;7.256;2023-07-13T02:00:52;22.27;;;1.83;;
19569;SDS011;9931;51.458;7.256;2023-07-13T02:03:18;31.38;;;2.50;;
19569;SDS011;9931;51.458;7.256;2023-07-13T02:05:44;13.15;;;1.30;;
19569;SDS011;9931;51.458;7.256;2023-07-13T02:08:10;19.17;;;1.63;;
19569;SDS011;9931;51.458;7.256;2023-07-13T02:10:36;19.88;;;1.65;;
19569;SDS011;9931;51.458;7.256;2023-07-13T02:13:04;16.67;;;1.40;;
19569;SDS011;9931;51.458;7.256;2023-07-13T02:15:29;15.38;;;1.35;;
19569;SDS011;9931;51.458;7.256;2023-07-13T02:17:54;16.53;;;1.53;;
19569;SDS011;9931;51.458;7.256;2023-07-13T02:20:19;17.17;;;1.53;;
19569;SDS011;9931;51.458;7.256;2023-07-13T02:22:44;14.82;;;1.42;;
19569;SDS011;9931;51.458;7.256;2023-07-13T02:25:10;17.20;;;1.50;;
19569;SDS011;9931;51.458;7.256;2023-07-13T02:27:35;16.48;;;1.35;;
19569;SDS011;9931;51.458;7.256;2023-07-13T02:30:00;9.82;;;0.93;;
19569;SDS011;9931;51.458;7.256;2023-07-13T02:32:25;15.85;;;1.42;;
19569;SDS011;9931;51.458;7.256;2023-07-13T02:34:51;15.15;;;1.38;;
19569;SDS011;9931;51.458;7.256;2023-07-13T02:37:17;20.27;;;1.77;;
19569;SDS011;9931;51.458;7.256;2023-07-13T02:39:42;19.60;;;1.60;;
19569;SDS011;9931;51.458;7.256;2023-07-13T02:42:08;22.03;;;1.77;;
19569;SDS011;9931;51.458;7.256;2023-07-13T02:44:33;8.90;;;0.93;;
19569;SDS011;9931;51.458;7.256;2023-07-13T02:46:58;13.80;;;1.25;;
19569;SDS011;9931;51.458;7.256;2023-07-13T02:49:23;8.93;;;0.90;;
19569;SDS011;9931;51.458;7.256;2023-07-13T02:51:48;50.67;;;3.50;;
19569;SDS011;9931;51.458;7.256;2023-07-13T02:54:14;20.67;;;1.75;;
19569;SDS011;9931;51.458;7.256;2023-07-13T02:56:39;12.07;;;1.17;;
19569;SDS011;9931;51.458;7.256;2023-07-13T02:59:05;29.50;;;2.22;;
19569;SDS011;9931;51.458;7.256;2023-07-13T03:01:30;8.88;;;0.90;;
19569;SDS011;9931;51.458;7.256;2023-07-13T03:03:59;5.55;;;0.68;;
19569;SDS011;9931;51.458;7.256;2023-07-13T03:06:25;15.30;;;1.40;;
19569;SDS011;9931;51.458;7.256;2023-07-13T03:08:50;17.90;;;1.50;;
19569;SDS011;9931;51.458;7.256;2023-07-13T03:11:17;17.30;;;1.45;;
19569;SDS011;9931;51.458;7.256;2023-07-13T03:13:42;16.23;;;1.48;;
19569;SDS011;9931;51.458;7.256;2023-07-13T03:16:08;15.85;;;1.50;;
19569;SDS011;9931;51.458;7.256;2023-07-13T03:18:33;59.25;;;4.38;;
19569;SDS011;9931;51.458;7.256;2023-07-13T03:20:59;25.10;;;2.10;;
19569;SDS011;9931;51.458;7.256;2023-07-13T03:23:24;16.95;;;1.55;;
19569;SDS011;9931;51.458;7.256;2023-07-13T03:25:50;9.80;;;0.98;;
19569;SDS011;9931;51.458;7.256;2023-07-13T03:28:15;30.83;;;2.35;;
19569;SDS011;9931;51.458;7.256;2023-07-13T03:30:41;13.85;;;1.23;;
19569;SDS011;9931;51.458;7.256;2023-07-13T03:33:06;43.75;;;3.20;;
19569;SDS011;9931;51.458;7.256;2023-07-13T03:35:31;11.93;;;1.13;;
19569;SDS011;9931;51.458;7.256;2023-07-13T03:37:57;17.40;;;1.55;;
19569;SDS011;9931;51.458;7.256;2023-07-13T03:40:24;44.75;;;3.35;;
19569;SDS011;9931;51.458;7.256;2023-07-13T03:42:50;21.95;;;1.92;;
19569;SDS011;9931;51.458;7.256;2023-07-13T03:45:15;36.07;;;2.83;;
19569;SDS011;9931;51.458;7.256;2023-07-13T03:47:40;62.80;;;4.47;;
19569;SDS011;9931;51.458;7.256;2023-07-13T03:50:05;47.17;;;3.53;;
19569;SDS011;9931;51.458;7.256;2023-07-13T03:52:31;36.33;;;2.80;;
19569;SDS011;9931;51.458;7.256;2023-07-13T03:54:56;27.50;;;2.20;;
19569;SDS011;9931;51.458;7.256;2023-07-13T03:57:21;41.58;;;3.10;;
19569;SDS011;9931;51.458;7.256;2023-07-13T03:59:47;18.23;;;1.63;;
19569;SDS011;9931;51.458;7.256;2023-07-13T04:02:12;19.77;;;1.67;;
19569;SDS011;9931;51.458;7.256;2023-07-13T04:04:37;18.03;;;1.53;;
19569;SDS011;9931;51.458;7.256;2023-07-13T04:07:05;19.52;;;1.73;;
19569;SDS011;9931;51.458;7.256;2023-07-13T04:09:30;16.58;;;1.48;;
19569;SDS011;9931;51.458;7.256;2023-07-13T04:11:56;18.27;;;1.57;;
19569;SDS011;9931;51.458;7.256;2023-07-13T04:14:21;59.92;;;4.15;;
19569;SDS011;9931;51.458;7.256;2023-07-13T04:16:46;18.43;;;1.63;;
19569;SDS011;9931;51.458;7.256;2023-07-13T04:19:12;13.90;;;1.30;;
19569;SDS011;9931;51.458;7.256;2023-07-13T04:21:38;21.23;;;1.77;;
19569;SDS011;9931;51.458;7.256;2023-07-13T04:24:03;35.00;;;2.63;;
19569;SDS011;9931;51.458;7.256;2023-07-13T04:26:29;21.48;;;1.80;;
19569;SDS011;9931;51.458;7.256;2023-07-13T04:28:54;18.20;;;1.55;;
19569;SDS011;9931;51.458;7.256;2023-07-13T04:31:20;51.50;;;3.65;;
19569;SDS011;9931;51.458;7.256;2023-07-13T04:33:45;8.98;;;0.98;;
19569;SDS011;9931;51.458;7.256;2023-07-13T04:36:10;24.92;;;2.10;;
19569;SDS011;9931;51.458;7.256;2023-07-13T04:38:36;68.55;;;5.10;;
19569;SDS011;9931;51.458;7.256;2023-07-13T04:41:06;24.17;;;2.05;;
19569;SDS011;9931;51.458;7.256;2023-07-13T04:43:32;31.50;;;2.47;;
19569;SDS011;9931;51.458;7.256;2023-07-13T04:45:57;10.68;;;1.05;;
19569;SDS011;9931;51.458;7.256;2023-07-13T04:48:27;51.92;;;3.97;;
19569;SDS011;9931;51.458;7.256;2023-07-13T04:50:56;24.27;;;1.97;;
19569;SDS011;9931;51.458;7.256;2023-07-13T04:53:21;29.80;;;2.33;;
19569;SDS011;9931;51.458;7.256;2023-07-13T04:55:46;18.70;;;1.67;;
19569;SDS011;9931;51.458;7.256;2023-07-13T04:58:12;27.47;;;2.17;;
19569;SDS011;9931;51.458;7.256;2023-07-13T05:00:37;23.35;;;1.92;;
19569;SDS011;9931;51.458;7.256;2023-07-13T05:03:02;38.87;;;2.90;;
19569;SDS011;9931;51.458;7.256;2023-07-13T05:05:28;20.15;;;1.75;;
19569;SDS011;9931;51.458;7.256;2023-07-13T05:07:53;17.27;;;1.58;;
19569;SDS011;9931;51.458;7.256;2023-07-13T05:10:18;23.67;;;1.98;;
19569;SDS011;9931;51.458;7.256;2023-07-13T05:12:44;18.08;;;1.60;;
19569;SDS011;9931;51.458;7.256;2023-07-13T05:15:09;39.70;;;2.95;;
19569;SDS011;9931;51.458;7.256;2023-07-13T05:17:34;13.43;;;1.25;;
19569;SDS011;9931;51.458;7.256;2023-07-13T05:20:00;36.08;;;2.67;;
19569;SDS011;9931;51.458;7.256;2023-07-13T05:22:25;22.90;;;2.03;;
19569;SDS011;9931;51.458;7.256;2023-07-13T05:24:50;16.93;;;1.50;;
19569;SDS011;9931;51.458;7.256;2023-07-13T05:27:15;23.13;;;1.92;;
19569;SDS011;9931;51.458;7.256;2023-07-13T05:29:41;46.80;;;3.38;;
19569;SDS011;9931;51.458;7.256;2023-07-13T05:32:06;9.00;;;1.00;;
19569;SDS011;9931;51.458;7.256;2023-07-13T05:34:31;12.13;;;1.17;;
19569;SDS011;9931;51.458;7.256;2023-07-13T05:36:57;20.27;;;1.73;;
19569;SDS011;9931;51.458;7.256;2023-07-13T05:39:22;30.10;;;2.35;;
19569;SDS011;9931;51.458;7.256;2023-07-13T05:41:47;20.25;;;1.80;;
19569;SDS011;9931;51.458;7.256;2023-07-13T05:44:13;38.17;;;2.92;;
19569;SDS011;9931;51.458;7.256;2023-07-13T05:46:38;43.40;;;3.20;;
19569;SDS011;9931;51.458;7.256;2023-07-13T05:49:03;25.58;;;2.15;;
19569;SDS011;9931;51.458;7.256;2023-07-13T05:51:29;23.87;;;2.10;;
19569;SDS011;9931;51.458;7.256;2023-07-13T05:53:54;21.10;;;1.83;;
19569;SDS011;9931;51.458;7.256;2023-07-13T05:56:19;20.25;;;1.73;;
19569;SDS011;9931;51.458;7.256;2023-07-13T05:58:44;36.43;;;2.83;;
19569;SDS011;9931;51.458;7.256;2023-07-13T06:01:10;30.77;;;2.47;;
19569;SDS011;9931;51.458;7.256;2023-07-13T06:03:36;12.07;;;1.17;;
19569;SDS011;9931;51.458;7.256;2023-07-13T06:06:03;18.88;;;1.70;;
19569;SDS011;9931;51.458;7.256;2023-07-13T06:08:29;71.32;;;5.28;;
19569;SDS011;9931;51.458;7.256;2023-07-13T06:10:54;21.65;;;1.85;;
19569;SDS011;9931;51.458;7.256;2023-07-13T06:13:19;47.10;;;3.47;;
19569;SDS011;9931;51.458;7.256;2023-07-13T06:15:50;19.83;;;1.67;;
19569;SDS011;9931;51.458;7.256;2023-07-13T06:18:16;15.48;;;1.38;;
19569;SDS011;9931;51.458;7.256;2023-07-13T06:20:41;17.20;;;1.58;;
19569;SDS011;9931;51.458;7.256;2023-07-13T06:23:06;20.33;;;1.83;;
19569;SDS011;9931;51.458;7.256;2023-07-13T06:25:31;14.45;;;1.33;;
19569;SDS011;9931;51.458;7.256;2023-07-13T06:27:57;12.50;;;1.17;;
19569;SDS011;9931;51.458;7.256;2023-07-13T06:30:22;28.08;;;2.35;;
19569;SDS011;9931;51.458;7.256;2023-07-13T06:32:47;18.70;;;1.73;;
19569;SDS011;9931;51.458;7.256;2023-07-13T06:35:12;18.37;;;1.70;;
19569;SDS011;9931;51.458;7.256;2023-07-13T06:37:38;23.55;;;2.00;;
19569;SDS011;9931;51.458;7.256;2023-07-13T06:40:04;27.95;;;2.22;;
19569;SDS011;9931;51.458;7.256;2023-07-13T06:42:29;20.85;;;1.77;;
19569;SDS011;9931;51.458;7.256;2023-07-13T06:44:54;16.60;;;1.50;;
19569;SDS011;9931;51.458;7.256;2023-07-13T06:47:19;27.37;;;2.23;;
19569;SDS011;9931;51.458;7.256;2023-07-13T06:49:45;9.85;;;1.02;;
19569;SDS011;9931;51.458;7.256;2023-07-13T06:52:10;9.17;;;0.97;;
19569;SDS011;9931;51.458;7.256;2023-07-13T06:54:35;16.37;;;1.53;;
19569;SDS011;9931;51.458;7.256;2023-07-13T06:57:00;31.25;;;2.45;;
19569;SDS011;9931;51.458;7.256;2023-07-13T06:59:25;27.92;;;2.33;;
19569;SDS011;9931;51.458;7.256;2023-07-13T07:01:51;35.07;;;2.77;;
19569;SDS011;9931;51.458;7.256;2023-07-13T07:04:16;27.77;;;2.33;;
19569;SDS011;9931;51.458;7.256;2023-07-13T07:06:41;26.17;;;2.28;;
19569;SDS011;9931;51.458;7.256;2023-07-13T07:09:06;31.73;;;2.50;;
19569;SDS011;9931;51.458;7.256;2023-07-13T07:11:31;35.83;;;2.75;;
19569;SDS011;9931;51.458;7.256;2023-07-13T07:13:57;26.30;;;2.23;;
19569;SDS011;9931;51.458;7.256;2023-07-13T07:16:24;17.60;;;1.60;;
19569;SDS011;9931;51.458;7.256;2023-07-13T07:18:49;17.60;;;1.65;;
19569;SDS011;9931;51.458;7.256;2023-07-13T07:21:15;40.53;;;3.07;;
19569;SDS011;9931;51.458;7.256;2023-07-13T07:23:40;19.60;;;1.77;;
19569;SDS011;9931;51.458;7.256;2023-07-13T07:26:06;47.67;;;3.78;;
19569;SDS011;9931;51.458;7.256;2023-07-13T07:28:33;44.00;;;3.30;;
19569;SDS011;9931;51.458;7.256;2023-07-13T07:30:58;19.85;;;1.80;;
19569;SDS011;9931;51.458;7.256;2023-07-13T07:33:24;48.30;;;3.67;;
19569;SDS011;9931;51.458;7.256;2023-07-13T07:35:49;6.95;;;0.73;;
19569;SDS011;9931;51.458;7.256;2023-07-13T07:38:14;16.15;;;1.58;;
19569;SDS011;9931;51.458;7.256;2023-07-13T07:40:40;26.63;;;2.30;;
19569;SDS011;9931;51.458;7.256;2023-07-13T07:43:06;31.58;;;2.72;;
19569;SDS011;9931;51.458;7.256;2023-07-13T07:45:31;24.25;;;2.17;;
19569;SDS011;9931;51.458;7.256;2023-07-13T07:47:56;15.87;;;1.53;;
19569;SDS011;9931;51.458;7.256;2023-07-13T07:50:24;13.38;;;1.30;;
19569;SDS011;9931;51.458;7.256;2023-07-13T07:52:49;21.35;;;1.95;;
19569;SDS011;9931;51.458;7.256;2023-07-13T07:55:14;61.03;;;4.60;;
19569;SDS011;9931;51.458;7.256;2023-07-13T07:57:39;16.25;;;1.80;;
19569;SDS011;9931;51.458;7.256;2023-07-13T08:00:05;19.88;;;11.60;;
19569;SDS011;9931;51.458;7.256;2023-07-13T08:02:30;14.80;;;3.70;;
19569;SDS011;9931;51.458;7.256;2023-07-13T08:04:55;5.70;;;3.67;;
19569;SDS011;9931;51.458;7.256;2023-07-13T08:07:21;20.93;;;3.47;;
19569;SDS011;9931;51.458;7.256;2023-07-13T08:09:46;17.20;;;3.47;;
19569;SDS011;9931;51.458;7.256;2023-07-13T08:12:12;17.45;;;1.58;;
19569;SDS011;9931;51.458;7.256;2023-07-13T08:14:37;3.60;;;0.65;;
19569;SDS011;9931;51.458;7.256;2023-07-13T08:17:03;28.10;;;4.57;;
19569;SDS011;9931;51.458;7.256;2023-07-13T08:19:29;16.25;;;3.92;;
19569;SDS011;9931;51.458;7.256;2023-07-13T08:21:54;14.15;;;4.18;;
19569;SDS011;9931;51.458;7.256;2023-07-13T08:24:21;18.80;;;1.70;;
19569;SDS011;9931;51.458;7.256;2023-07-13T08:26:46;20.02;;;12.88;;
19569;SDS011;9931;51.458;7.256;2023-07-13T08:29:12;2.42;;;1.83;;
19569;SDS011;9931;51.458;7.256;2023-07-13T08:31:37;19.85;;;3.67;;
19569;SDS011;9931;51.458;7.256;2023-07-13T08:34:02;21.02;;;3.88;;
19569;SDS011;9931;51.458;7.256;2023-07-13T08:36:28;23.77;;;3.05;;
19569;SDS011;9931;51.458;7.256;2023-07-13T08:38:53;30.17;;;2.33;;
19569;SDS011;9931;51.458;7.256;2023-07-13T08:41:19;19.73;;;3.22;;
19569;SDS011;9931;51.458;7.256;2023-07-13T08:43:46;17.17;;;2.50;;
19569;SDS011;9931;51.458;7.256;2023-07-13T08:46:18;16.83;;;4.38;;
19569;SDS011;9931;51.458;7.256;2023-07-13T08:48:45;22.95;;;3.53;;
19569;SDS011;9931;51.458;7.256;2023-07-13T08:53:47;19.63;;;2.08;;
19569;SDS011;9931;51.458;7.256;2023-07-13T08:56:17;18.67;;;11.52;;
19569;SDS011;9931;51.458;7.256;2023-07-13T08:58:43;70.07;;;8.10;;
19569;SDS011;9931;51.458;7.256;2023-07-13T09:01:16;7.18;;;5.18;;
19569;SDS011;9931;51.458;7.256;2023-07-13T09:03:57;9.93;;;3.13;;
19569;SDS011;9931;51.458;7.256;2023-07-13T09:06:31;17.23;;;3.38;;
19569;SDS011;9931;51.458;7.256;2023-07-13T09:09:00;37.22;;;6.97;;
19569;SDS011;9931;51.458;7.256;2023-07-13T09:16:55;17.13;;;3.50;;
19569;SDS011;9931;51.458;7.256;2023-07-13T09:19:23;24.25;;;6.03;;
19569;SDS011;9931;51.458;7.256;2023-07-13T09:21:49;18.83;;;4.93;;
19569;SDS011;9931;51.458;7.256;2023-07-13T09:26:41;20.53;;;5.03;;
19569;SDS011;9931;51.458;7.256;2023-07-13T09:29:11;31.63;;;3.33;;
19569;SDS011;9931;51.458;7.256;2023-07-13T09:31:44;16.23;;;14.93;;
19569;SDS011;9931;51.458;7.256;2023-07-13T09:34:11;17.48;;;7.85;;
19569;SDS011;9931;51.458;7.256;2023-07-13T09:36:36;20.42;;;9.63;;
19569;SDS011;9931;51.458;7.256;2023-07-13T09:42:15;32.15;;;5.43;;
19569;SDS011;9931;51.458;7.256;2023-07-13T09:45:26;19.65;;;6.57;;
19569;SDS011;9931;51.458;7.256;2023-07-13T09:47:37;30.33;;;7.10;;
19569;SDS011;9931;51.458;7.256;2023-07-13T09:50:05;19.75;;;7.03;;
19569;SDS011;9931;51.458;7.256;2023-07-13T09:52:41;21.33;;;9.60;;
19569;SDS011;9931;51.458;7.256;2023-07-13T09:57:50;15.90;;;4.82;;
19569;SDS011;9931;51.458;7.256;2023-07-13T10:00:21;22.02;;;10.85;;
19569;SDS011;9931;51.458;7.256;2023-07-13T10:02:49;28.75;;;13.55;;
19569;SDS011;9931;51.458;7.256;2023-07-13T10:05:22;15.23;;;10.95;;
19569;SDS011;9931;51.458;7.256;2023-07-13T10:07:49;11.27;;;9.23;;
19569;SDS011;9931;51.458;7.256;2023-07-13T10:10:19;18.80;;;5.03;;
19569;SDS011;9931;51.458;7.256;2023-07-13T10:12:45;27.05;;;14.02;;
19569;SDS011;9931;51.458;7.256;2023-07-13T10:15:15;14.38;;;13.02;;
19569;SDS011;9931;51.458;7.256;2023-07-13T10:17:41;25.52;;;12.48;;
19569;SDS011;9931;51.458;7.256;2023-07-13T10:20:06;25.92;;;13.13;;
19569;SDS011;9931;51.458;7.256;2023-07-13T10:25:03;24.55;;;6.78;;
19569;SDS011;9931;51.458;7.256;2023-07-13T10:27:34;24.60;;;7.95;;
19569;SDS011;9931;51.458;7.256;2023-07-13T10:30:09;22.25;;;10.20;;
19569;SDS011;9931;51.458;7.256;2023-07-13T10:32:36;27.52;;;11.55;;
19569;SDS011;9931;51.458;7.256;2023-07-13T10:35:01;21.93;;;11.73;;
19569;SDS011;9931;51.458;7.256;2023-07-13T10:37:35;25.27;;;9.60;;
19569;SDS011;9931;51.458;7.256;2023-07-13T10:40:02;25.02;;;10.25;;
19569;SDS011;9931;51.458;7.256;2023-07-13T10:42:30;30.85;;;10.95;;
19569;SDS011;9931;51.458;7.256;2023-07-13T10:44:57;44.22;;;26.00;;
19569;SDS011;9931;51.458;7.256;2023-07-13T10:47:22;23.70;;;14.57;;
19569;SDS011;9931;51.458;7.256;2023-07-13T10:49:49;16.63;;;10.43;;
19569;SDS011;9931;51.458;7.256;2023-07-13T10:55:02;24.70;;;6.43;;
19569;SDS011;9931;51.458;7.256;2023-07-13T10:57:28;32.33;;;6.68;;
19569;SDS011;9931;51.458;7.256;2023-07-13T11:02:28;24.35;;;4.07;;
19569;SDS011;9931;51.458;7.256;2023-07-13T11:04:54;20.98;;;4.43;;
19569;SDS011;9931;51.458;7.256;2023-07-13T11:07:21;22.30;;;5.72;;
19569;SDS011;9931;51.458;7.256;2023-07-13T11:09:49;21.92;;;8.73;;
19569;SDS011;9931;51.458;7.256;2023-07-13T11:15:30;20.67;;;18.23;;
19569;SDS011;9931;51.458;7.256;2023-07-13T11:19:55;24.43;;;9.57;;
19569;SDS011;9931;51.458;7.256;2023-07-13T11:27:51;19.30;;;9.25;;
19569;SDS011;9931;51.458;7.256;2023-07-13T11:33:02;20.17;;;16.00;;
19569;SDS011;9931;51.458;7.256;2023-07-13T11:35:30;23.40;;;17.40;;
19569;SDS011;9931;51.458;7.256;2023-07-13T11:37:57;21.52;;;13.70;;
19569;SDS011;9931;51.458;7.256;2023-07-13T11:40:22;21.48;;;14.10;;
19569;SDS011;9931;51.458;7.256;2023-07-13T11:42:50;36.83;;;9.73;;
19569;SDS011;9931;51.458;7.256;2023-07-13T11:45:20;22.83;;;7.80;;
19569;SDS011;9931;51.458;7.256;2023-07-13T11:47:48;24.42;;;7.78;;
19569;SDS011;9931;51.458;7.256;2023-07-13T11:50:17;14.43;;;9.15;;
19569;SDS011;9931;51.458;7.256;2023-07-13T11:52:43;21.13;;;10.85;;
19569;SDS011;9931;51.458;7.256;2023-07-13T11:55:15;17.05;;;13.63;;
19569;SDS011;9931;51.458;7.256;2023-07-13T11:57:44;26.25;;;20.38;;
19569;SDS011;9931;51.458;7.256;2023-07-13T12:00:13;31.30;;;28.73;;
19569;SDS011;9931;51.458;7.256;2023-07-13T12:02:42;34.83;;;30.75;;
19569;SDS011;9931;51.458;7.256;2023-07-13T12:05:10;32.67;;;29.70;;
19569;SDS011;9931;51.458;7.256;2023-07-13T12:07:37;26.20;;;23.15;;
19569;SDS011;9931;51.458;7.256;2023-07-13T12:10:13;27.45;;;24.58;;
19569;SDS011;9931;51.458;7.256;2023-07-13T12:12:46;33.60;;;30.50;;
19569;SDS011;9931;51.458;7.256;2023-07-13T12:15:12;30.80;;;27.70;;
19569;SDS011;9931;51.458;7.256;2023-07-13T12:17:37;49.15;;;29.88;;
19569;SDS011;9931;51.458;7.256;2023-07-13T12:20:04;32.05;;;27.08;;
19569;SDS011;9931;51.458;7.256;2023-07-13T12:22:37;38.17;;;25.95;;
19569;SDS011;9931;51.458;7.256;2023-07-13T12:25:02;30.17;;;27.03;;
19569;SDS011;9931;51.458;7.256;2023-07-13T12:27:27;31.67;;;28.50;;
19569;SDS011;9931;51.458;7.256;2023-07-13T12:30:00;38.05;;;32.03;;
19569;SDS011;9931;51.458;7.256;2023-07-13T12:32:26;56.72;;;38.22;;
19569;SDS011;9931;51.458;7.256;2023-07-13T12:35:06;32.58;;;27.27;;
19569;SDS011;9931;51.458;7.256;2023-07-13T12:37:34;32.90;;;25.30;;
19569;SDS011;9931;51.458;7.256;2023-07-13T12:39:59;28.67;;;25.80;;
19569;SDS011;9931;51.458;7.256;2023-07-13T12:42:28;20.65;;;18.77;;
19569;SDS011;9931;51.458;7.256;2023-07-13T12:45:05;30.85;;;19.70;;
19569;SDS011;9931;51.458;7.256;2023-07-13T12:47:41;15.88;;;13.75;;
19569;SDS011;9931;51.458;7.256;2023-07-13T12:50:18;41.42;;;14.80;;
19569;SDS011;9931;51.458;7.256;2023-07-13T12:52:44;25.15;;;12.27;;
19569;SDS011;9931;51.458;7.256;2023-07-13T12:55:18;22.58;;;11.05;;
19569;SDS011;9931;51.458;7.256;2023-07-13T12:57:49;12.18;;;8.15;;
19569;SDS011;9931;51.458;7.256;2023-07-13T13:02:50;95.47;;;14.63;;
19569;SDS011;9931;51.458;7.256;2023-07-13T13:05:15;17.35;;;10.25;;
19569;SDS011;9931;51.458;7.256;2023-07-13T13:07:41;27.00;;;12.82;;
19569;SDS011;9931;51.458;7.256;2023-07-13T13:10:12;27.17;;;11.77;;
19569;SDS011;9931;51.458;7.256;2023-07-13T13:12:38;29.60;;;12.40;;
19569;SDS011;9931;51.458;7.256;2023-07-13T13:15:04;28.35;;;17.92;;
19569;SDS011;9931;51.458;7.256;2023-07-13T13:17:31;47.08;;;18.08;;
19569;SDS011;9931;51.458;7.256;2023-07-13T13:19:57;25.63;;;15.68;;
19569;SDS011;9931;51.458;7.256;2023-07-13T13:22:22;12.77;;;11.60;;
19569;SDS011;9931;51.458;7.256;2023-07-13T13:24:48;33.55;;;13.57;;
19569;SDS011;9931;51.458;7.256;2023-07-13T13:27:17;24.73;;;10.52;;
19569;SDS011;9931;51.458;7.256;2023-07-13T13:29:43;23.73;;;9.32;;
19569;SDS011;9931;51.458;7.256;2023-07-13T13:32:09;28.55;;;8.40;;
19569;SDS011;9931;51.458;7.256;2023-07-13T13:34:35;28.92;;;6.32;;
19569;SDS011;9931;51.458;7.256;2023-07-13T13:37:00;27.13;;;5.07;;
19569;SDS011;9931;51.458;7.256;2023-07-13T13:39:31;51.83;;;6.95;;
19569;SDS011;9931;51.458;7.256;2023-07-13T13:41:57;20.65;;;4.20;;
19569;SDS011;9931;51.458;7.256;2023-07-13T13:44:23;22.37;;;3.57;;
19569;SDS011;9931;51.458;7.256;2023-07-13T13:46:50;18.40;;;2.45;;
19569;SDS011;9931;51.458;7.256;2023-07-13T13:49:17;16.00;;;1.75;;
19569;SDS011;9931;51.458;7.256;2023-07-13T13:51:43;41.80;;;3.35;;
19569;SDS011;9931;51.458;7.256;2023-07-13T13:54:10;18.15;;;1.95;;
19569;SDS011;9931;51.458;7.256;2023-07-13T13:56:36;15.00;;;1.60;;
19569;SDS011;9931;51.458;7.256;2023-07-13T13:59:01;40.22;;;3.15;;
19569;SDS011;9931;51.458;7.256;2023-07-13T14:01:26;16.83;;;1.77;;
19569;SDS011;9931;51.458;7.256;2023-07-13T14:03:51;10.60;;;1.23;;
19569;SDS011;9931;51.458;7.256;2023-07-13T14:06:17;15.18;;;1.55;;
19569;SDS011;9931;51.458;7.256;2023-07-13T14:08:42;66.30;;;5.47;;
19569;SDS011;9931;51.458;7.256;2023-07-13T14:11:12;15.50;;;1.60;;
19569;SDS011;9931;51.458;7.256;2023-07-13T14:13:38;16.92;;;2.03;;
19569;SDS011;9931;51.458;7.256;2023-07-13T14:16:10;15.32;;;1.65;;
19569;SDS011;9931;51.458;7.256;2023-07-13T14:18:35;69.07;;;5.60;;
19569;SDS011;9931;51.458;7.256;2023-07-13T14:21:01;14.47;;;1.77;;
19569;SDS011;9931;51.458;7.256;2023-07-13T14:23:26;15.03;;;2.00;;
19569;SDS011;9931;51.458;7.256;2023-07-13T14:25:51;16.37;;;2.03;;
19569;SDS011;9931;51.458;7.256;2023-07-13T14:28:23;33.00;;;3.07;;
19569;SDS011;9931;51.458;7.256;2023-07-13T14:30:49;21.30;;;2.05;;
19569;SDS011;9931;51.458;7.256;2023-07-13T14:33:14;21.73;;;2.05;;
19569;SDS011;9931;51.458;7.256;2023-07-13T14:35:39;14.50;;;1.65;;
19569;SDS011;9931;51.458;7.256;2023-07-13T14:38:08;7.47;;;0.95;;
19569;SDS011;9931;51.458;7.256;2023-07-13T14:40:33;14.15;;;1.63;;
19569;SDS011;9931;51.458;7.256;2023-07-13T14:42:59;14.82;;;1.58;;
19569;SDS011;9931;51.458;7.256;2023-07-13T14:45:24;29.38;;;2.50;;
19569;SDS011;9931;51.458;7.256;2023-07-13T14:47:50;25.08;;;2.22;;
19569;SDS011;9931;51.458;7.256;2023-07-13T14:50:17;14.73;;;1.40;;
19569;SDS011;9931;51.458;7.256;2023-07-13T14:52:43;28.98;;;3.28;;
19569;SDS011;9931;51.458;7.256;2023-07-13T14:55:12;33.15;;;2.60;;
19569;SDS011;9931;51.458;7.256;2023-07-13T14:57:38;22.17;;;1.95;;
19569;SDS011;9931;51.458;7.256;2023-07-13T15:00:04;10.23;;;1.10;;
19569;SDS011;9931;51.458;7.256;2023-07-13T15:02:31;21.13;;;1.90;;
19569;SDS011;9931;51.458;7.256;2023-07-13T15:04:57;6.22;;;0.75;;
19569;SDS011;9931;51.458;7.256;2023-07-13T15:07:23;15.20;;;1.42;;
19569;SDS011;9931;51.458;7.256;2023-07-13T15:09:49;27.80;;;2.30;;
19569;SDS011;9931;51.458;7.256;2023-07-13T15:12:15;24.75;;;2.05;;
19569;SDS011;9931;51.458;7.256;2023-07-13T15:14:41;18.83;;;1.55;;
19569;SDS011;9931;51.458;7.256;2023-07-13T15:17:08;18.60;;;1.70;;
19569;SDS011;9931;51.458;7.256;2023-07-13T15:19:43;24.92;;;2.10;;
19569;SDS011;9931;51.458;7.256;2023-07-13T15:22:09;23.70;;;2.08;;
19569;SDS011;9931;51.458;7.256;2023-07-13T15:24:34;14.88;;;1.38;;